• Join FlightAware (Why Join?)
  • Login
  • US Flag 
01:49PM EDT


 

Airport Tracker/Info


-or-


 

Live Flight TrackerFlight Track Log ✈ TRS374A ✈ 13-Nov-2013 ✈ KATL - KDCA

Flight Track Log - Related Links

Times and Time Zones

All times are in EST time to prevent confusion due to time zone crossing. See the TRS374A flight status page for this flight to view local times or setup timezone preferences in your user account.

Time Position Orientation Groundspeed Altitude Reporting Facility
EST Latitude Longitude Course Direction KTS MPH feet Rate Location/Type
02:19PM 33.6333 -84.5000 53° Northeast 204 235 3,100  Level Atlanta TRACON
02:20PM 33.5969 -84.5675 237° Southwest 350 403 5,200 2,640 Climbing Atlanta Center
02:21PM 33.5217 -84.5869 192° South 291 335 8,400 2,580 Climbing Atlanta Center
02:22PM 33.4572 -84.5417 150° Southeast 286 329 10,400 1,860 Climbing Atlanta Center
02:23PM 33.4575 -84.4322 90° East 266 306 12,200 2,100 Climbing Atlanta Center
02:24PM 33.4600 -84.3128 89° East 325 374 14,600 2,460 Climbing Atlanta Center
02:25PM 34.0404 -83.9100 53° Northeast  Level Estimated
02:25PM 33.5289 -84.2331 44° Northeast 304 350 17,200  Level Atlanta Center
02:26PM 33.6231 -84.1661 31° Northeast 311 358 19,000 1,920 Climbing Atlanta Center
02:27PM 33.7150 -84.1036 29° Northeast 360 414 21,100 1,800 Climbing Atlanta Center
02:28PM 33.7858 -83.9964 52° Northeast 388 447 22,700 1,740 Climbing Atlanta Center
02:29PM 33.8464 -83.8761 59° Northeast 402 463 24,600 1,680 Climbing Atlanta Center
02:30PM 33.9067 -83.7536 59° Northeast 417 480 26,100 1,500 Climbing Atlanta Center
02:31PM 33.9814 -83.6331 53° Northeast 434 499 27,700 1,200 Climbing Atlanta Center
02:32PM 34.0539 -83.5147 53° Northeast 439 505 28,500 1,020 Climbing Atlanta Center
02:33PM 34.1328 -83.3914 52° Northeast 456 525 29,800 1,200 Climbing Atlanta Center
02:34PM 34.2114 -83.2650 53° Northeast 461 531 31,000 600 Climbing Atlanta Center
02:35PM 34.2878 -83.1411 53° Northeast 461 531 31,000  Level Atlanta Center
02:36PM 34.3639 -83.0172 53° Northeast 455 524 31,000  Level Atlanta Center
02:37PM 34.4400 -82.8953 53° Northeast 460 529 31,000  Level Atlanta Center
02:38PM 34.5119 -82.7733 54° Northeast 454 522 31,000  Level Atlanta Center
02:39PM 34.5756 -82.6664 54° Northeast 447 514 31,000  Level Atlanta Center
02:40PM 34.6533 -82.5514 51° Northeast 436 502 31,000  Level Atlanta Center
02:41PM 34.7272 -82.4364 52° Northeast 436 502 31,000  Level Atlanta Center
02:42PM 34.7986 -82.3136 55° Northeast 436 502 31,000  Level Atlanta Center
02:43PM 34.8739 -82.1956 52° Northeast 442 509 31,000  Level Atlanta Center
02:44PM 34.9431 -82.0750 55° Northeast 442 509 31,000  Level Atlanta Center
02:45PM 35.0183 -81.9539 53° Northeast 442 509 31,000  Level Atlanta Center
02:46PM 35.0869 -81.8281 56° Northeast 442 509 31,000  Level Atlanta Center
02:47PM 35.1536 -81.7042 57° Northeast 442 509 31,000  Level Atlanta Center
02:48PM 35.2181 -81.5856 56° Northeast 431 496 31,000  Level Atlanta Center
02:49PM 35.2803 -81.4614 58° Northeast 425 489 31,000  Level Atlanta Center
02:50PM 35.3425 -81.3450 57° Northeast 418 481 31,000  Level Atlanta Center
02:51PM 35.4083 -81.2206 57° Northeast 424 488 31,000  Level Atlanta Center
02:52PM 35.4719 -81.0833 60° Northeast 424 488 31,000  Level Atlanta Center
02:53PM 35.5358 -80.9636 57° Northeast 424 488 31,000  Level Atlanta Center
02:54PM 35.5972 -80.8411 58° Northeast 424 488 31,000 -420 Level Atlanta Center
02:55PM 35.6608 -80.7186 57° Northeast 418 481 30,200 -840 Descending Atlanta Center
02:56PM 35.7225 -80.6086 55° Northeast 412 474 29,400 -600 Descending Atlanta Center
02:57PM 35.7756 -80.4964 60° Northeast 412 474 29,000 -180 Descending Atlanta Center
02:59PM 35.8889 -80.2839 57° Northeast 395 455 29,000  Level Washington Center
03:00PM 35.9497 -80.1669 57° Northeast 395 455 29,000  Level Washington Center
03:01PM 36.0083 -80.0522 58° Northeast 395 455 29,000  Level Washington Center
03:02PM 36.0556 -79.9597 58° Northeast 400 460 29,000  Level Washington Center
03:03PM 36.1289 -79.8300 55° Northeast 390 449 29,000  Level Washington Center
03:04PM 36.1869 -79.7253 55° Northeast 369 425 29,000  Level Washington Center
03:05PM 36.2422 -79.6303 54° Northeast 354 407 29,000 -300 Level Washington Center
03:06PM 36.3000 -79.5275 55° Northeast 354 407 28,500 -1,260 Descending Washington Center
03:07PM 36.3531 -79.4322 55° Northeast 349 402 26,500 -1,680 Descending Washington Center
03:08PM 36.3997 -79.3467 56° Northeast 343 395 25,200 -780 Descending Washington Center
03:09PM 36.4547 -79.2511 54° Northeast 338 389 25,000 -120 Descending Washington Center
03:10PM 36.5167 -79.1353 56° Northeast 353 406 25,000  Level Washington Center
03:11PM 36.5758 -79.0369 53° Northeast 353 406 25,000  Level Washington Center
03:12PM 36.6331 -78.9386 54° Northeast 353 406 25,000  Level Washington Center
03:13PM 36.6861 -78.8294 59° Northeast 353 406 25,000  Level Washington Center
03:14PM 36.7386 -78.7383 54° Northeast 353 406 25,000 -60 Level Washington Center
03:15PM 36.7933 -78.6369 56° Northeast 353 406 24,900 -960 Descending Washington Center
03:16PM 36.8500 -78.5378 54° Northeast 353 406 23,100 -1,380 Descending Washington Center
03:17PM 36.9092 -78.4283 56° Northeast 353 406 22,100 -600 Descending Washington Center
03:18PM 36.9633 -78.3317 55° Northeast 347 399 22,000 -60 Descending Washington Center
03:19PM 37.0136 -78.2319 58° Northeast 347 399 22,000  Level Washington Center
03:20PM 37.0681 -78.1350 55° Northeast 341 392 22,000  Level Washington Center
03:21PM 37.1222 -78.0353 56° Northeast 336 387 22,000  Level Washington Center
03:22PM 37.1722 -77.9378 57° Northeast 336 387 22,000  Level Washington Center
03:23PM 37.2261 -77.8375 56° Northeast 342 394 22,000  Level Washington Center
03:24PM 37.2822 -77.7428 53° Northeast 342 394 22,000  Level Washington Center
03:25PM 37.3564 -77.6689 38° Northeast 332 382 22,000  Level Washington Center
03:26PM 37.4328 -77.5978 36° Northeast 326 375 22,000  Level Washington Center
03:27PM 37.5069 -77.5264 37° Northeast 331 381 22,000  Level Washington Center
03:28PM 37.5831 -77.4578 36° Northeast 331 381 22,000  Level Washington Center
03:29PM 37.6714 -77.4178 20° North 326 375 22,000  Level Washington Center
03:30PM 37.7575 -77.3806 19° North 326 375 22,000 -60 Level Washington Center
03:31PM 37.8456 -77.3458 17° North 326 375 21,900 -1,320 Descending Washington Center
03:32PM 37.9294 -77.3108 18° North 326 375 19,400 -2,460 Descending Washington Center
03:33PM 38.0133 -77.2733 19° North 321 369 16,900 -2,640 Descending Washington Center
03:34PM 38.0972 -77.2408 17° North 321 369 14,100 -2,520 Descending Washington Center
03:35PM 38.1664 -77.2106 19° North 295 339 12,000 -1,680 Descending Washington Center
03:36PM 38.2378 -77.1831 17° North 275 316 10,900 -1,140 Descending Washington Center
03:37PM 38.3028 -77.1500 22° Northeast 261 300 9,800 -1,200 Descending Washington Center
03:38PM 38.3619 -77.1011 33° Northeast 251 289 8,500 -1,080 Descending Washington Center
03:39PM 38.4250 -77.0492 33° Northeast 246 283 7,700 -1,020 Descending Washington Center
03:40PM 38.4839 -77.0053 30° Northeast 251 289 6,600 -1,380 Descending Washington Center
03:41PM 38.5486 -77.0119 355° North 233 268 5,000 -1,260 Descending Washington Center
03:42PM 38.6172 -77.0186 356° North 238 274 4,100 -840 Descending Washington Center
03:44PM 38.7000 -77.0167 North 200 230 3,200 -900 Descending Potomac TRACON
03:45PM 38.7500 -77.0333 345° North 167 192 2,100 -960 Descending Potomac TRACON
03:46PM 38.7833 -77.0333 360° North 136 157 1,300 -840 Descending Potomac TRACON
03:47PM 38.8167 -77.0333 360° North 128 147 600 -720 Descending Potomac TRACON
03:49PM 38.8500 -77.0333 North  Level FlightAware Approximate
03:56PM 38.8519 -77.0377 North  Level Estimated